createdAt,value
2022-10-09T00:00:43.798Z,1000.37
2022-10-09T00:01:45.494Z,1000.34
2022-10-09T00:02:47.585Z,1000.3
2022-10-09T00:03:48.967Z,1000.25
2022-10-09T00:04:50.757Z,1000.3
2022-10-09T00:05:52.447Z,1000.3
2022-10-09T00:06:54.180Z,1000.33
2022-10-09T00:07:55.903Z,1000.32
2022-10-09T00:08:57.638Z,1000.34
2022-10-09T00:09:59.369Z,1000.35
2022-10-09T00:11:01.114Z,1000.29
2022-10-09T00:12:02.845Z,1000.26
2022-10-09T00:13:04.594Z,1000.22
2022-10-09T00:14:06.320Z,1000.26
2022-10-09T00:15:08.060Z,1000.28
2022-10-09T00:16:09.785Z,1000.26
2022-10-09T00:17:11.664Z,1000.28
2022-10-09T00:18:13.241Z,1000.3
2022-10-09T00:19:15.000Z,1000.32
2022-10-09T00:20:16.754Z,1000.27
2022-10-09T00:21:18.474Z,1000.28
2022-10-09T00:22:20.188Z,1000.28
2022-10-09T00:23:21.921Z,1000.23
2022-10-09T00:24:23.667Z,1000.27
2022-10-09T00:25:25.385Z,1000.22
2022-10-09T00:26:27.127Z,1000.26
2022-10-09T00:27:28.861Z,1000.27
2022-10-09T00:28:33.285Z,1000.27
2022-10-09T00:29:32.335Z,1000.28
2022-10-09T00:30:34.170Z,1000.31
2022-10-09T00:31:35.795Z,1000.32
2022-10-09T00:32:37.533Z,1000.3
2022-10-09T00:33:39.295Z,1000.28
2022-10-09T00:34:41.009Z,1000.24
2022-10-09T00:35:42.749Z,1000.25
2022-10-09T00:36:44.478Z,1000.29
2022-10-09T00:37:46.222Z,1000.33
2022-10-09T00:38:47.962Z,1000.29
2022-10-09T00:39:49.683Z,1000.32
2022-10-09T00:40:51.419Z,1000.34
2022-10-09T00:41:53.155Z,1000.31
2022-10-09T00:42:54.877Z,1000.36
2022-10-09T00:43:56.649Z,1000.3
2022-10-09T00:44:58.378Z,1000.24
2022-10-09T00:46:00.236Z,1000.26
2022-10-09T00:47:01.819Z,1000.27
2022-10-09T00:48:03.566Z,1000.3
2022-10-09T00:49:05.338Z,1000.3
2022-10-09T00:50:07.035Z,1000.26
2022-10-09T00:51:08.765Z,1000.31
2022-10-09T00:52:10.494Z,1000.31
2022-10-09T00:53:12.231Z,1000.29
2022-10-09T00:54:13.969Z,1000.32
2022-10-09T00:55:15.715Z,1000.28
2022-10-09T00:56:17.434Z,1000.3
2022-10-09T00:57:19.196Z,1000.23
2022-10-09T00:58:20.911Z,1000.28
2022-10-09T00:59:22.657Z,1000.31
2022-10-09T01:00:24.379Z,1000.25
2022-10-09T01:01:26.195Z,1000.35
2022-10-09T01:02:27.953Z,1000.37
2022-10-09T01:03:29.582Z,1000.35
2022-10-09T01:04:31.327Z,1000.36
2022-10-09T01:05:33.051Z,1000.32
2022-10-09T01:06:34.776Z,1000.31
2022-10-09T01:07:36.521Z,1000.28
2022-10-09T01:08:38.236Z,1000.31
2022-10-09T01:09:39.990Z,1000.29
2022-10-09T01:10:41.714Z,1000.31
2022-10-09T01:11:43.452Z,1000.29
2022-10-09T01:12:45.320Z,1000.22
2022-10-09T01:13:46.922Z,1000.19
2022-10-09T01:14:48.648Z,1000.19
2022-10-09T01:15:50.435Z,1000.16
2022-10-09T01:16:52.116Z,1000.2
2022-10-09T01:17:53.852Z,1000.22
2022-10-09T01:18:55.584Z,1000.2
2022-10-09T01:19:57.355Z,1000.17
2022-10-09T01:20:59.053Z,1000.15
2022-10-09T01:22:00.790Z,1000.18
2022-10-09T01:23:02.555Z,1000.19
2022-10-09T01:24:04.267Z,1000.13
2022-10-09T01:25:06.001Z,1000.16
2022-10-09T01:26:07.731Z,1000.17
2022-10-09T01:27:09.465Z,1000.15
2022-10-09T01:28:11.275Z,1000.06
2022-10-09T01:29:12.929Z,1000.11
2022-10-09T01:30:14.707Z,1000.1
2022-10-09T01:31:16.530Z,1000.12
2022-10-09T01:32:18.167Z,1000.12
2022-10-09T01:33:19.901Z,1000.05
2022-10-09T01:34:21.608Z,1000.08
2022-10-09T01:35:23.344Z,1000.12
2022-10-09T01:36:25.078Z,1000.07
2022-10-09T01:37:26.845Z,1000.07
2022-10-09T01:38:28.542Z,1000.06
2022-10-09T01:39:30.286Z,1000.07
2022-10-09T01:40:32.008Z,1000.04
2022-10-09T01:41:33.793Z,1000.07
2022-10-09T01:42:35.488Z,1000.03
2022-10-09T01:43:37.220Z,1000
2022-10-09T01:44:38.959Z,1000
2022-10-09T01:45:40.687Z,999.99
2022-10-09T01:46:42.421Z,1000.06
2022-10-09T01:47:44.151Z,1000.02
2022-10-09T01:48:45.891Z,1000.03
2022-10-09T01:49:47.640Z,1000.01
2022-10-09T01:50:49.362Z,1000
2022-10-09T01:51:51.096Z,999.98
2022-10-09T01:52:53.121Z,1000.01
2022-10-09T01:53:54.559Z,999.98
2022-10-09T01:54:56.305Z,999.99
2022-10-09T01:55:58.039Z,999.93
2022-10-09T01:56:59.772Z,999.88
2022-10-09T01:58:01.504Z,999.91
2022-10-09T01:59:03.268Z,999.9
2022-10-09T02:00:05.006Z,999.89
2022-10-09T02:01:06.723Z,999.88
2022-10-09T02:02:08.602Z,999.87
2022-10-09T02:03:10.197Z,999.89
2022-10-09T02:04:11.940Z,999.87
2022-10-09T02:05:13.655Z,999.81
2022-10-09T02:06:15.405Z,999.76
2022-10-09T02:07:17.119Z,999.78
2022-10-09T02:08:18.853Z,999.71
2022-10-09T02:09:20.582Z,999.77
2022-10-09T02:10:22.318Z,999.73
2022-10-09T02:11:24.066Z,999.73
2022-10-09T02:12:25.793Z,999.74
2022-10-09T02:13:27.516Z,999.73
2022-10-09T02:14:29.279Z,999.74
2022-10-09T02:15:31.191Z,999.73
2022-10-09T02:16:37.035Z,999.75
2022-10-09T02:17:34.458Z,999.73
2022-10-09T02:18:36.186Z,999.72
2022-10-09T02:19:37.933Z,999.68
2022-10-09T02:20:39.666Z,999.66
2022-10-09T02:21:44.004Z,999.59
2022-10-09T02:22:43.168Z,999.68
2022-10-09T02:23:44.856Z,999.69
2022-10-09T02:24:46.601Z,999.67
2022-10-09T02:25:48.338Z,999.65
2022-10-09T02:26:50.061Z,999.64
2022-10-09T02:27:51.837Z,999.64
2022-10-09T02:28:53.619Z,999.63
2022-10-09T02:29:55.304Z,999.64
2022-10-09T02:30:57.145Z,999.62
2022-10-09T02:31:58.756Z,999.66
2022-10-09T02:33:00.507Z,999.62
2022-10-09T02:34:02.246Z,999.63
2022-10-09T02:35:03.968Z,999.62
2022-10-09T02:36:05.717Z,999.62
2022-10-09T02:37:07.453Z,999.6
2022-10-09T02:38:09.160Z,999.62
2022-10-09T02:39:10.897Z,999.65
2022-10-09T02:40:12.637Z,999.59
2022-10-09T02:41:14.428Z,999.6
2022-10-09T02:42:16.110Z,999.59
2022-10-09T02:43:17.858Z,999.6
2022-10-09T02:44:19.558Z,999.59
2022-10-09T02:45:21.294Z,999.63
2022-10-09T02:46:23.147Z,999.6
2022-10-09T02:47:24.766Z,999.59
2022-10-09T02:48:26.533Z,999.55
2022-10-09T02:49:28.237Z,999.52
2022-10-09T02:50:29.994Z,999.61
2022-10-09T02:51:31.728Z,999.57
2022-10-09T02:52:33.432Z,999.58
2022-10-09T02:53:35.177Z,999.57
2022-10-09T02:54:36.898Z,999.53
2022-10-09T02:55:38.643Z,999.54
2022-10-09T02:56:40.418Z,999.54
2022-10-09T02:57:42.099Z,999.56
2022-10-09T02:58:43.844Z,999.51
2022-10-09T02:59:45.567Z,999.58
2022-10-09T03:00:47.302Z,999.53
2022-10-09T03:01:49.195Z,999.54
2022-10-09T03:02:51.126Z,999.51
2022-10-09T03:03:52.515Z,999.51
2022-10-09T03:04:54.258Z,999.46
2022-10-09T03:05:56.001Z,999.48
2022-10-09T03:06:57.757Z,999.49
2022-10-09T03:07:59.457Z,999.52
2022-10-09T03:09:01.190Z,999.47
2022-10-09T03:10:02.930Z,999.44
2022-10-09T03:11:04.658Z,999.41
2022-10-09T03:12:06.386Z,999.47
2022-10-09T03:13:08.125Z,999.44
2022-10-09T03:14:09.859Z,999.46
2022-10-09T03:15:11.591Z,999.48
2022-10-09T03:16:13.423Z,999.47
2022-10-09T03:17:15.066Z,999.48
2022-10-09T03:18:16.807Z,999.44
2022-10-09T03:19:18.525Z,999.4
2022-10-09T03:20:20.268Z,999.42
2022-10-09T03:21:22.017Z,999.39
2022-10-09T03:22:23.739Z,999.4
2022-10-09T03:23:25.483Z,999.39
2022-10-09T03:24:27.207Z,999.42
2022-10-09T03:25:28.940Z,999.47
2022-10-09T03:26:30.680Z,999.46
2022-10-09T03:27:32.407Z,999.47
2022-10-09T03:28:34.220Z,999.44
2022-10-09T03:29:35.877Z,999.48
2022-10-09T03:30:37.615Z,999.5
2022-10-09T03:31:51.966Z,999.49
2022-10-09T03:32:41.071Z,999.49
2022-10-09T03:33:42.810Z,999.5
2022-10-09T03:34:44.541Z,999.5
2022-10-09T03:35:46.277Z,999.49
2022-10-09T03:36:48.030Z,999.52
2022-10-09T03:37:49.757Z,999.47
2022-10-09T03:38:51.479Z,999.48
2022-10-09T03:39:53.218Z,999.45
2022-10-09T03:40:54.975Z,999.5
2022-10-09T03:41:56.714Z,999.42
2022-10-09T03:42:58.417Z,999.47
2022-10-09T03:44:00.182Z,999.49
2022-10-09T03:45:01.884Z,999.54
2022-10-09T03:46:03.622Z,999.52
2022-10-09T03:47:05.374Z,999.51
2022-10-09T03:48:07.092Z,999.51
2022-10-09T03:49:08.832Z,999.51
2022-10-09T03:50:10.556Z,999.54
2022-10-09T03:51:12.307Z,999.55
2022-10-09T03:52:14.023Z,999.53
2022-10-09T03:53:15.778Z,999.54
2022-10-09T03:54:17.733Z,999.56
2022-10-09T03:55:19.236Z,999.58
2022-10-09T03:56:21.007Z,999.54
2022-10-09T03:57:22.721Z,999.56
2022-10-09T03:58:24.439Z,999.59
2022-10-09T03:59:26.167Z,999.56
2022-10-09T04:00:27.910Z,999.55
2022-10-09T04:01:29.686Z,999.54
2022-10-09T04:02:31.407Z,999.52
2022-10-09T04:03:33.105Z,999.56
2022-10-09T04:04:34.839Z,999.56
2022-10-09T04:05:36.569Z,999.53
2022-10-09T04:06:38.304Z,999.57
2022-10-09T04:07:40.075Z,999.56
2022-10-09T04:08:41.777Z,999.58
2022-10-09T04:09:43.521Z,999.57
2022-10-09T04:10:45.249Z,999.59
2022-10-09T04:11:46.987Z,999.61
2022-10-09T04:12:49.043Z,999.58
2022-10-09T04:13:50.443Z,999.58
2022-10-09T04:14:52.176Z,999.57
2022-10-09T04:15:54.035Z,999.58
2022-10-09T04:16:55.653Z,999.57
2022-10-09T04:17:57.392Z,999.54
2022-10-09T04:18:59.134Z,999.53
2022-10-09T04:20:00.852Z,999.53
2022-10-09T04:21:02.587Z,999.51
2022-10-09T04:22:04.324Z,999.51
2022-10-09T04:23:06.063Z,999.52
2022-10-09T04:24:07.803Z,999.5
2022-10-09T04:25:09.543Z,999.47
2022-10-09T04:26:11.266Z,999.49
2022-10-09T04:27:13.011Z,999.46
2022-10-09T04:28:14.965Z,999.46
2022-10-09T04:29:16.468Z,999.51
2022-10-09T04:30:18.206Z,999.51
2022-10-09T04:31:20.003Z,999.47
2022-10-09T04:32:21.673Z,999.53
2022-10-09T04:33:23.401Z,999.46
2022-10-09T04:34:25.145Z,999.51
2022-10-09T04:35:26.885Z,999.51
2022-10-09T04:36:28.628Z,999.51
2022-10-09T04:37:30.355Z,999.51
2022-10-09T04:38:32.114Z,999.53
2022-10-09T04:39:33.816Z,999.52
2022-10-09T04:40:35.542Z,999.54
2022-10-09T04:41:38.421Z,999.51
2022-10-09T04:42:39.019Z,999.5
2022-10-09T04:43:40.784Z,999.57
2022-10-09T04:44:42.491Z,999.51
2022-10-09T04:45:44.257Z,999.5
2022-10-09T04:46:45.961Z,999.43
2022-10-09T04:47:47.695Z,999.46
2022-10-09T04:48:49.435Z,999.47
2022-10-09T04:49:51.158Z,999.52
2022-10-09T04:50:52.892Z,999.55
2022-10-09T04:51:54.627Z,999.52
2022-10-09T04:52:56.366Z,999.51
2022-10-09T04:54:00.619Z,999.5
2022-10-09T04:54:59.832Z,999.48
2022-10-09T04:56:01.560Z,999.45
2022-10-09T04:57:03.312Z,999.47
2022-10-09T04:58:05.042Z,999.45
2022-10-09T04:59:06.770Z,999.42
2022-10-09T05:00:08.498Z,999.45
2022-10-09T05:01:10.381Z,999.44
2022-10-09T05:02:12.080Z,999.42
2022-10-09T05:03:13.698Z,999.44
2022-10-09T05:04:15.435Z,999.43
2022-10-09T05:05:17.175Z,999.37
2022-10-09T05:06:18.910Z,999.41
2022-10-09T05:07:20.638Z,999.42
2022-10-09T05:08:22.376Z,999.33
2022-10-09T05:09:24.124Z,999.35
2022-10-09T05:10:25.841Z,999.35
2022-10-09T05:11:27.584Z,999.36
2022-10-09T05:12:29.319Z,999.38
2022-10-09T05:13:31.042Z,999.39
2022-10-09T05:14:32.787Z,999.35
2022-10-09T05:15:34.518Z,999.38
2022-10-09T05:16:49.712Z,999.38
2022-10-09T05:17:38.029Z,999.4
2022-10-09T05:18:39.760Z,999.35
2022-10-09T05:19:41.456Z,999.34
2022-10-09T05:20:43.178Z,999.35
2022-10-09T05:21:44.915Z,999.39
2022-10-09T05:22:47.089Z,999.38
2022-10-09T05:23:48.394Z,999.35
2022-10-09T05:24:50.155Z,999.37
2022-10-09T05:25:51.862Z,999.35
2022-10-09T05:26:53.603Z,999.34
2022-10-09T05:27:55.336Z,999.37
2022-10-09T05:28:57.056Z,999.4
2022-10-09T05:29:58.798Z,999.34
2022-10-09T05:31:00.522Z,999.34
2022-10-09T05:32:02.403Z,999.36
2022-10-09T05:33:03.991Z,999.36
2022-10-09T05:34:05.730Z,999.38
2022-10-09T05:35:07.468Z,999.39
2022-10-09T05:36:09.208Z,999.38
2022-10-09T05:37:10.931Z,999.4
2022-10-09T05:38:12.670Z,999.41
2022-10-09T05:39:14.402Z,999.41
2022-10-09T05:40:16.136Z,999.38
2022-10-09T05:41:17.873Z,999.43
2022-10-09T05:42:19.614Z,999.43
2022-10-09T05:43:21.352Z,999.48
2022-10-09T05:44:23.081Z,999.47
2022-10-09T05:45:24.847Z,999.45
2022-10-09T05:46:26.552Z,999.45
2022-10-09T05:47:28.275Z,999.46
2022-10-09T05:48:30.030Z,999.45
2022-10-09T05:49:31.755Z,999.46
2022-10-09T05:50:38.748Z,999.46
2022-10-09T05:51:40.487Z,999.52
2022-10-09T05:52:42.221Z,999.51
2022-10-09T05:53:43.960Z,999.5
2022-10-09T05:54:45.689Z,999.47
2022-10-09T05:55:47.667Z,999.47
2022-10-09T05:56:49.371Z,999.45
2022-10-09T05:57:51.101Z,999.42
2022-10-09T05:58:52.841Z,999.47
2022-10-09T05:59:54.574Z,999.44
2022-10-09T06:00:58.399Z,999.46
2022-10-09T06:02:03.254Z,999.51
2022-10-09T06:03:04.967Z,999.47
2022-10-09T06:04:06.688Z,999.47
2022-10-09T06:05:08.411Z,999.49
2022-10-09T06:06:10.150Z,999.51
2022-10-09T06:07:11.893Z,999.45
2022-10-09T06:08:13.624Z,999.45
2022-10-09T06:09:15.395Z,999.43
2022-10-09T06:10:17.122Z,999.45
2022-10-09T06:11:18.816Z,999.45
2022-10-09T06:12:20.553Z,999.45
2022-10-09T06:13:22.361Z,999.43
2022-10-09T06:14:24.063Z,999.45
2022-10-09T06:15:25.760Z,999.44
2022-10-09T06:16:27.567Z,999.46
2022-10-09T06:17:29.267Z,999.49
2022-10-09T06:18:30.953Z,999.52
2022-10-09T06:19:32.697Z,999.51
2022-10-09T06:20:34.435Z,999.51
2022-10-09T06:21:36.173Z,999.53
2022-10-09T06:22:37.916Z,999.54
2022-10-09T06:23:39.642Z,999.54
2022-10-09T06:24:41.418Z,999.53
2022-10-09T06:25:43.107Z,999.52
2022-10-09T06:26:44.837Z,999.49
2022-10-09T06:27:46.588Z,999.49
2022-10-09T06:28:48.428Z,999.46
2022-10-09T06:29:50.051Z,999.54
2022-10-09T06:30:51.823Z,999.52
2022-10-09T06:31:53.510Z,999.5
2022-10-09T06:32:55.245Z,999.52
2022-10-09T06:33:57.002Z,999.48
2022-10-09T06:34:58.713Z,999.51
2022-10-09T06:36:08.781Z,999.48
2022-10-09T06:37:02.181Z,999.49
2022-10-09T06:38:03.922Z,999.42
2022-10-09T06:39:05.699Z,999.42
2022-10-09T06:40:07.435Z,999.41
2022-10-09T06:41:09.160Z,999.41
2022-10-09T06:42:10.902Z,999.45
2022-10-09T06:43:12.610Z,999.45
2022-10-09T06:44:16.840Z,999.39
2022-10-09T06:45:16.064Z,999.44
2022-10-09T06:46:17.902Z,999.39
2022-10-09T06:47:19.534Z,999.39
2022-10-09T06:48:21.317Z,999.41
2022-10-09T06:49:23.058Z,999.45
2022-10-09T06:50:24.732Z,999.42
2022-10-09T06:51:26.471Z,999.42
2022-10-09T06:52:28.249Z,999.42
2022-10-09T06:53:29.984Z,999.41
2022-10-09T06:54:31.681Z,999.39
2022-10-09T06:55:33.410Z,999.46
2022-10-09T06:56:35.179Z,999.48
2022-10-09T06:57:36.920Z,999.47
2022-10-09T06:58:38.614Z,999.5
2022-10-09T06:59:40.350Z,999.49
2022-10-09T07:00:42.122Z,999.44
2022-10-09T07:01:43.912Z,999.52
2022-10-09T07:02:45.689Z,999.45
2022-10-09T07:03:47.277Z,999.46
2022-10-09T07:04:49.048Z,999.48
2022-10-09T07:05:50.753Z,999.49
2022-10-09T07:06:52.476Z,999.54
2022-10-09T07:07:54.212Z,999.53
2022-10-09T07:08:55.960Z,999.53
2022-10-09T07:09:57.727Z,999.44
2022-10-09T07:10:59.415Z,999.47
2022-10-09T07:12:01.161Z,999.48
2022-10-09T07:13:02.879Z,999.47
2022-10-09T07:14:04.656Z,999.46
2022-10-09T07:15:06.422Z,999.43
2022-10-09T07:16:08.148Z,999.45
2022-10-09T07:17:09.830Z,999.46
2022-10-09T07:18:11.546Z,999.47
2022-10-09T07:19:13.309Z,999.53
2022-10-09T07:20:15.057Z,999.53
2022-10-09T07:21:16.781Z,999.52
2022-10-09T07:22:18.483Z,999.5
2022-10-09T07:23:20.263Z,999.5
2022-10-09T07:24:22.002Z,999.52
2022-10-09T07:25:23.826Z,999.46
2022-10-09T07:26:25.468Z,999.51
2022-10-09T07:27:27.201Z,999.56
2022-10-09T07:28:28.960Z,999.61
2022-10-09T07:29:30.627Z,999.56
2022-10-09T07:30:32.365Z,999.59
2022-10-09T07:31:34.099Z,999.55
2022-10-09T07:32:35.830Z,999.55
2022-10-09T07:33:37.605Z,999.54
2022-10-09T07:34:39.293Z,999.57
2022-10-09T07:35:42.666Z,999.55
2022-10-09T07:36:42.769Z,999.58
2022-10-09T07:37:44.498Z,999.56
2022-10-09T07:38:45.503Z,999.56
2022-10-09T07:39:48.013Z,999.53
2022-10-09T07:40:49.714Z,999.5
2022-10-09T07:41:51.438Z,999.5
2022-10-09T07:42:53.173Z,999.51
2022-10-09T07:43:54.902Z,999.53
2022-10-09T07:44:56.681Z,999.5
2022-10-09T07:45:58.453Z,999.46
2022-10-09T07:47:00.145Z,999.51
2022-10-09T07:48:01.853Z,999.47
2022-10-09T07:49:03.607Z,999.41
2022-10-09T07:50:05.405Z,999.45
2022-10-09T07:51:07.080Z,999.42
2022-10-09T07:52:08.789Z,999.39
2022-10-09T07:53:10.556Z,999.41
2022-10-09T07:54:12.246Z,999.4
2022-10-09T07:55:13.999Z,999.39
2022-10-09T07:56:15.715Z,999.33
2022-10-09T07:57:17.488Z,999.39
2022-10-09T07:58:19.189Z,999.37
2022-10-09T07:59:20.952Z,999.33
2022-10-09T08:00:22.761Z,999.31
2022-10-09T08:01:24.448Z,999.34
2022-10-09T08:02:26.252Z,999.35
2022-10-09T08:03:27.894Z,999.4
2022-10-09T08:04:29.587Z,999.36
2022-10-09T08:05:31.336Z,999.39
2022-10-09T08:06:33.053Z,999.36
2022-10-09T08:07:35.137Z,999.34
2022-10-09T08:08:36.578Z,999.27
2022-10-09T08:09:38.262Z,999.31
2022-10-09T08:10:40.033Z,999.32
2022-10-09T08:11:41.743Z,999.27
2022-10-09T08:13:03.836Z,999.29
2022-10-09T08:14:05.562Z,999.26
2022-10-09T08:15:07.313Z,999.24
2022-10-09T08:16:09.116Z,999.19
2022-10-09T08:17:10.798Z,999.25
2022-10-09T08:18:12.529Z,999.24
2022-10-09T08:19:14.314Z,999.25
2022-10-09T08:20:16.003Z,999.28
2022-10-09T08:21:17.737Z,999.21
2022-10-09T08:22:19.481Z,999.21
2022-10-09T08:23:21.200Z,999.21
2022-10-09T08:24:23.001Z,999.18
2022-10-09T08:25:24.690Z,999.25
2022-10-09T08:26:26.403Z,999.22
2022-10-09T08:27:28.156Z,999.2
2022-10-09T08:28:29.949Z,999.21
2022-10-09T08:29:31.627Z,999.21
2022-10-09T08:30:33.396Z,999.24
2022-10-09T08:31:35.240Z,999.19
2022-10-09T08:32:36.833Z,999.15
2022-10-09T08:33:48.965Z,999.1
2022-10-09T08:34:50.590Z,999.1
2022-10-09T08:35:57.601Z,999.06
2022-10-09T08:36:59.189Z,999.06
2022-10-09T08:38:00.901Z,999.1
2022-10-09T08:39:08.074Z,999.02
2022-10-09T08:40:09.491Z,999
2022-10-09T08:41:11.362Z,999.04
2022-10-09T08:42:12.985Z,999.01
2022-10-09T08:43:14.722Z,999
2022-10-09T08:44:16.457Z,999
2022-10-09T08:45:18.205Z,998.96
2022-10-09T08:46:20.923Z,998.98
2022-10-09T08:47:21.629Z,998.91
2022-10-09T08:48:23.366Z,998.98
2022-10-09T08:49:25.073Z,999
2022-10-09T08:50:26.846Z,998.99
2022-10-09T08:51:39.167Z,998.97
2022-10-09T08:52:40.572Z,998.96
2022-10-09T08:53:42.312Z,998.99
2022-10-09T08:56:24.030Z,999
2022-10-09T08:57:25.408Z,998.99
2022-10-09T08:58:27.145Z,998.99
2022-10-09T08:59:29.111Z,998.98
2022-10-09T09:00:30.639Z,998.96
2022-10-09T09:02:04.308Z,998.92
2022-10-09T09:03:05.166Z,998.92
2022-10-09T09:04:12.199Z,998.9
2022-10-09T09:05:47.471Z,998.91
2022-10-09T09:06:49.166Z,998.87
2022-10-09T09:07:50.943Z,998.85
2022-10-09T09:09:15.872Z,998.81
2022-10-09T09:10:18.933Z,998.84
2022-10-09T09:11:39.932Z,998.78
2022-10-09T09:12:41.614Z,998.83
2022-10-09T09:14:37.517Z,998.8
2022-10-09T09:15:39.708Z,998.8
2022-10-09T09:16:41.075Z,998.77
2022-10-09T09:17:42.728Z,998.73
2022-10-09T09:18:44.489Z,998.74
2022-10-09T09:19:46.189Z,998.72
2022-10-09T09:20:47.909Z,998.73
2022-10-09T09:21:49.680Z,998.8
2022-10-09T09:22:52.133Z,998.72
2022-10-09T09:23:53.108Z,998.73
2022-10-09T09:24:54.840Z,998.71
2022-10-09T09:25:56.568Z,998.72
2022-10-09T09:26:58.308Z,998.71
2022-10-09T09:28:00.054Z,998.68
2022-10-09T09:29:01.990Z,998.73
2022-10-09T09:30:03.555Z,998.7
2022-10-09T09:31:05.383Z,998.67
2022-10-09T09:32:06.985Z,998.69
2022-10-09T09:33:08.714Z,998.68
2022-10-09T09:34:11.956Z,998.67
2022-10-09T09:35:12.194Z,998.62
2022-10-09T09:36:13.962Z,998.62
2022-10-09T09:37:15.652Z,998.63
2022-10-09T09:38:17.926Z,998.67
2022-10-09T09:40:38.008Z,998.68
2022-10-09T09:41:22.618Z,998.73
2022-10-09T09:42:24.372Z,998.68
2022-10-09T09:43:26.110Z,998.68
2022-10-09T09:44:27.828Z,998.7
2022-10-09T09:45:29.596Z,998.72
2022-10-09T09:46:31.391Z,998.69
2022-10-09T09:47:33.082Z,998.66
2022-10-09T09:48:34.802Z,998.72
2022-10-09T09:49:36.538Z,998.65
2022-10-09T09:50:47.156Z,998.65
2022-10-09T09:51:40.000Z,998.66
2022-10-09T09:52:43.027Z,998.66
2022-10-09T09:53:43.461Z,998.64
2022-10-09T09:54:45.139Z,998.62
2022-10-09T09:55:46.916Z,998.57
2022-10-09T09:57:12.903Z,998.59
2022-10-09T09:57:50.838Z,998.49
2022-10-09T09:58:52.074Z,998.52
2022-10-09T09:59:53.798Z,998.48
2022-10-09T10:00:55.596Z,998.49
2022-10-09T10:01:57.373Z,998.43
2022-10-09T10:02:59.058Z,998.41
2022-10-09T10:04:00.813Z,998.4
2022-10-09T10:05:04.135Z,998.4
2022-10-09T10:06:04.219Z,998.39
2022-10-09T10:07:05.993Z,998.42
2022-10-09T10:08:07.673Z,998.4
2022-10-09T10:09:09.441Z,998.44
2022-10-09T10:10:11.169Z,998.42
2022-10-09T10:11:12.962Z,998.4
2022-10-09T10:12:14.655Z,998.29
2022-10-09T10:13:16.338Z,998.4
2022-10-09T10:14:18.087Z,998.37
2022-10-09T10:15:19.820Z,998.3
2022-10-09T10:16:21.600Z,998.31
2022-10-09T10:17:23.383Z,998.26
2022-10-09T10:18:25.040Z,998.32
2022-10-09T10:19:26.775Z,998.28
2022-10-09T10:20:28.514Z,998.26
2022-10-09T10:21:30.223Z,998.27
2022-10-09T10:22:31.953Z,998.23
2022-10-09T10:23:33.686Z,998.19
2022-10-09T10:24:35.414Z,998.15
2022-10-09T10:25:37.154Z,998.21
2022-10-09T10:26:38.894Z,998.18
2022-10-09T10:27:40.617Z,998.16
2022-10-09T10:28:42.367Z,998.11
2022-10-09T10:29:44.112Z,998.08
2022-10-09T10:30:45.863Z,998.08
2022-10-09T10:31:47.586Z,998.07
2022-10-09T10:32:49.317Z,998.02
2022-10-09T10:33:51.033Z,998
2022-10-09T10:34:52.856Z,998.03
2022-10-09T10:35:54.505Z,997.99
2022-10-09T10:37:01.009Z,997.99
2022-10-09T10:37:57.947Z,997.96
2022-10-09T10:38:59.721Z,997.92
2022-10-09T10:40:01.406Z,997.9
2022-10-09T10:41:03.161Z,997.91
2022-10-09T10:42:04.892Z,997.88
2022-10-09T10:43:06.634Z,997.87
2022-10-09T10:44:08.363Z,997.81
2022-10-09T10:45:10.113Z,997.85
2022-10-09T10:46:11.952Z,997.8
2022-10-09T10:47:13.554Z,997.8
2022-10-09T10:48:15.544Z,997.78
2022-10-09T10:49:17.029Z,997.74
2022-10-09T10:50:18.789Z,997.75
2022-10-09T10:51:20.553Z,997.73
2022-10-09T10:52:22.301Z,997.71
2022-10-09T10:53:23.978Z,997.65
2022-10-09T10:54:25.772Z,997.75
2022-10-09T10:55:27.437Z,997.66
2022-10-09T10:56:29.172Z,997.7
2022-10-09T10:57:30.914Z,997.64
2022-10-09T10:58:32.667Z,997.65
2022-10-09T10:59:34.411Z,997.65
2022-10-09T11:00:36.204Z,997.62
2022-10-09T11:01:37.843Z,997.64
2022-10-09T11:02:41.994Z,997.6
2022-10-09T11:03:41.452Z,997.54
2022-10-09T11:04:44.212Z,997.57
2022-10-09T11:05:44.801Z,997.56
2022-10-09T11:06:46.578Z,997.57
2022-10-09T11:07:48.291Z,997.54
2022-10-09T11:08:50.023Z,997.57
2022-10-09T11:09:55.927Z,997.52
2022-10-09T11:10:58.622Z,997.53
2022-10-09T11:12:00.675Z,997.5
2022-10-09T11:13:02.349Z,997.46
2022-10-09T11:14:03.776Z,997.47
2022-10-09T11:15:05.520Z,997.48
2022-10-09T11:16:07.327Z,997.49
2022-10-09T11:17:08.846Z,997.47
2022-10-09T11:18:10.583Z,997.43
2022-10-09T11:19:12.349Z,997.42
2022-10-09T11:20:14.048Z,997.41
2022-10-09T11:21:15.786Z,997.39
2022-10-09T11:22:16.051Z,997.32
2022-10-09T11:23:19.271Z,997.29
2022-10-09T11:24:21.026Z,997.26
2022-10-09T11:25:22.839Z,997.25
2022-10-09T11:26:24.515Z,997.26
2022-10-09T11:27:26.264Z,997.23
2022-10-09T11:28:28.024Z,997.27
2022-10-09T11:29:29.692Z,997.28
2022-10-09T11:30:31.437Z,997.24
2022-10-09T11:31:33.323Z,997.23
2022-10-09T11:32:34.980Z,997.22
2022-10-09T11:33:36.641Z,997.2
2022-10-09T11:34:38.376Z,997.16
2022-10-09T11:35:40.094Z,997.14
2022-10-09T11:36:41.826Z,997.15
2022-10-09T11:37:43.531Z,997.15
2022-10-09T11:38:45.276Z,997.11
2022-10-09T11:39:46.995Z,997.08
2022-10-09T11:40:48.721Z,997.1
2022-10-09T11:41:50.449Z,997.08
2022-10-09T11:42:53.467Z,997.03
2022-10-09T11:43:53.975Z,997.06
2022-10-09T11:44:55.701Z,997.08
2022-10-09T11:45:57.428Z,997.08
2022-10-09T11:47:01.772Z,997
2022-10-09T11:48:00.864Z,996.99
2022-10-09T11:49:02.606Z,996.97
2022-10-09T11:50:04.346Z,996.93
2022-10-09T11:51:06.073Z,996.93
2022-10-09T11:52:07.856Z,996.87
2022-10-09T11:53:09.542Z,996.91
2022-10-09T11:54:11.273Z,996.91
2022-10-09T11:55:13.076Z,996.86
2022-10-09T11:56:14.730Z,996.88
2022-10-09T11:57:16.492Z,996.91
2022-10-09T11:58:18.211Z,996.85
2022-10-09T11:59:19.945Z,996.83
2022-10-09T12:00:21.703Z,996.79
2022-10-09T12:01:23.507Z,996.74
2022-10-09T12:02:25.364Z,996.77
2022-10-09T12:03:26.904Z,996.77
2022-10-09T12:04:43.549Z,996.74
2022-10-09T12:05:30.364Z,996.78
2022-10-09T12:06:32.087Z,996.74
2022-10-09T12:07:33.946Z,996.71
2022-10-09T12:08:35.572Z,996.67
2022-10-09T12:09:37.294Z,996.65
2022-10-09T12:10:39.024Z,996.59
2022-10-09T12:11:40.756Z,996.6
2022-10-09T12:12:42.508Z,996.6
2022-10-09T12:13:44.214Z,996.6
2022-10-09T12:14:46.027Z,996.54
2022-10-09T12:15:47.722Z,996.56
2022-10-09T12:16:49.500Z,996.52
2022-10-09T12:17:52.242Z,996.51
2022-10-09T12:18:52.896Z,996.48
2022-10-09T12:20:00.092Z,996.46
2022-10-09T12:20:56.377Z,996.45
2022-10-09T12:21:58.092Z,996.45
2022-10-09T12:23:25.081Z,996.44
2022-10-09T12:24:01.576Z,996.44
2022-10-09T12:25:03.300Z,996.48
2022-10-09T12:26:05.050Z,996.43
2022-10-09T12:27:06.769Z,996.38
2022-10-09T12:28:08.595Z,996.37
2022-10-09T12:29:10.247Z,996.37
2022-10-09T12:30:12.006Z,996.36
2022-10-09T12:31:13.860Z,996.32
2022-10-09T12:32:15.534Z,996.33
2022-10-09T12:33:17.207Z,996.3
2022-10-09T12:34:18.916Z,996.3
2022-10-09T12:35:20.659Z,996.36
2022-10-09T12:36:22.414Z,996.29
2022-10-09T12:37:24.127Z,996.29
2022-10-09T12:38:25.973Z,996.29
2022-10-09T12:39:27.587Z,996.28
2022-10-09T12:40:29.319Z,996.25
2022-10-09T12:41:34.432Z,996.23
2022-10-09T12:42:32.793Z,996.24
2022-10-09T12:43:34.548Z,996.23
2022-10-09T12:44:36.258Z,996.1
2022-10-09T12:45:38.067Z,996.14
2022-10-09T12:46:39.724Z,996.07
2022-10-09T12:47:41.459Z,996.07
2022-10-09T12:48:43.189Z,996.06
2022-10-09T12:49:44.921Z,996.05
2022-10-09T12:50:46.653Z,996.02
2022-10-09T12:51:51.330Z,996.1
2022-10-09T12:52:50.519Z,996.07
2022-10-09T12:53:54.047Z,996.01
2022-10-09T12:54:57.681Z,996.01
2022-10-09T12:55:59.479Z,995.99
2022-10-09T12:57:02.214Z,995.93